Time;durP1;ratioP1;P1;durP2;ratioP2;P2;SDS_P1;SDS_P2;PMS_P1;PMS_P2;Temp;Humidity;BMP_temperature;BMP_pressure;BME280_temperature;BME280_humidity;BME280_pressure;Samples;Min_cycle;Max_cycle;Signal;HPM_P1;HPM_P2
2023/10/19 00:00:40;;;;;;;24.75;18.83;;;7.20;82.30;;;;;;5074702;28;20051;-92
2023/10/19 00:03:06;;;;;;;34.40;24.87;;;7.20;82.50;;;;;;5091360;28;20075;-91
2023/10/19 00:05:33;;;;;;;34.73;25.47;;;7.20;82.50;;;;;;5101552;28;20040;-89
2023/10/19 00:08:20;;;;;;;35.67;26.00;;;7.10;82.70;;;;;;5096755;28;20505;-89
2023/10/19 00:10:55;;;;;;;35.43;26.60;;;7.10;82.70;;;;;;5091388;28;20040;-89
2023/10/19 00:13:22;;;;;;;37.07;27.00;;;7.10;82.90;;;;;;5088535;28;20095;-90
2023/10/19 00:15:57;;;;;;;36.30;26.13;;;7.10;83.10;;;;;;5091126;28;20500;-90
2023/10/19 00:18:24;;;;;;;40.53;28.07;;;7.10;83.30;;;;;;5091806;28;20108;-88
2023/10/19 00:20:52;;;;;;;38.13;28.60;;;7.00;83.40;;;;;;5089449;28;20054;-89
2023/10/19 00:23:28;;;;;;;48.40;29.60;;;7.00;83.50;;;;;;5091481;28;20048;-90
2023/10/19 00:25:55;;;;;;;44.33;29.27;;;7.00;83.70;;;;;;5089437;28;20055;-87
2023/10/19 00:28:22;;;;;;;40.07;29.20;;;7.00;83.90;;;;;;5074885;28;20059;-89
2023/10/19 00:30:51;;;;;;;43.03;30.40;;;7.00;83.80;;;;;;5116743;27;20048;-88
2023/10/19 00:33:19;;;;;;;42.70;29.77;;;7.00;84.00;;;;;;5096595;28;20059;-91
2023/10/19 00:41:00;;;;;;;44.30;31.30;;;7.00;84.20;;;;;;5089910;28;20059;-91
2023/10/19 00:43:34;;;;;;;46.57;32.03;;;7.00;84.30;;;;;;5089090;28;20177;-89
2023/10/19 00:46:10;;;;;;;46.80;33.70;;;7.00;84.30;;;;;;5099278;28;20121;-90
2023/10/19 00:48:37;;;;;;;47.97;32.87;;;7.00;84.40;;;;;;5090236;28;20089;-90
2023/10/19 00:51:09;;;;;;;43.47;31.73;;;7.00;84.50;;;;;;5070305;28;20048;-90
2023/10/19 00:53:41;;;;;;;45.97;33.50;;;7.00;84.70;;;;;;5103538;28;20092;-91
2023/10/19 00:56:09;;;;;;;55.53;35.90;;;7.00;84.70;;;;;;5090373;28;20444;-92
2023/10/19 00:58:39;;;;;;;43.23;32.63;;;7.00;84.70;;;;;;5090139;28;20398;-89
2023/10/19 01:01:05;;;;;;;49.87;34.70;;;7.00;84.80;;;;;;5089948;28;20135;-89
2023/10/19 01:03:35;;;;;;;47.00;34.20;;;7.00;84.90;;;;;;5072902;28;20056;-88
2023/10/19 01:06:05;;;;;;;52.00;35.00;;;7.00;84.90;;;;;;5073005;28;20055;-89
2023/10/19 01:08:41;;;;;;;50.00;35.60;;;7.00;85.00;;;;;;5090282;28;20072;-87
2023/10/19 01:11:11;;;;;;;51.03;34.57;;;7.00;85.00;;;;;;5074013;28;20051;-90
2023/10/19 01:13:38;;;;;;;51.03;37.03;;;7.00;85.00;;;;;;5070296;28;20044;-89
2023/10/19 01:16:04;;;;;;;49.53;35.37;;;7.00;85.10;;;;;;5090563;28;20075;-90
2023/10/19 01:18:33;;;;;;;52.43;36.10;;;7.00;85.00;;;;;;5092633;28;20048;-89
2023/10/19 01:21:04;;;;;;;49.53;36.10;;;7.00;85.00;;;;;;5099509;28;20083;-88
2023/10/19 01:23:29;;;;;;;48.15;35.00;;;7.00;85.10;;;;;;5094895;28;20044;-89
2023/10/19 01:31:16;;;;;;;58.30;37.87;;;7.00;85.20;;;;;;5088575;28;20056;-91
2023/10/19 01:33:46;;;;;;;55.10;37.73;;;7.00;85.30;;;;;;5088557;28;20095;-88
2023/10/19 01:36:35;;;;;;;50.67;36.70;;;7.00;85.50;;;;;;5074461;28;20315;-90
2023/10/19 01:39:01;;;;;;;53.67;38.13;;;7.00;85.50;;;;;;5094354;28;20098;-88
2023/10/19 01:41:30;;;;;;;58.67;39.10;;;7.00;85.50;;;;;;5071593;28;20495;-90
2023/10/19 01:44:04;;;;;;;58.10;39.87;;;7.00;85.60;;;;;;5097713;28;20105;-91
2023/10/19 01:46:36;;;;;;;52.23;38.33;;;7.00;85.60;;;;;;5103093;28;20046;-88
2023/10/19 01:49:04;;;;;;;57.13;38.03;;;7.00;85.70;;;;;;5092681;28;20043;-89
2023/10/19 01:51:32;;;;;;;57.43;39.73;;;7.00;85.70;;;;;;5089289;28;20419;-90
2023/10/19 01:54:00;;;;;;;62.67;40.97;;;7.00;85.80;;;;;;5088295;28;20058;-87
2023/10/19 01:56:27;;;;;;;59.30;40.50;;;7.00;85.80;;;;;;5088499;28;20044;-87
2023/10/19 01:58:54;;;;;;;65.83;42.27;;;7.00;85.80;;;;;;5087770;28;20048;-89
2023/10/19 02:01:20;;;;;;;62.43;41.33;;;7.00;86.00;;;;;;5088373;28;20092;-87
2023/10/19 02:03:55;;;;;;;61.87;40.53;;;7.00;86.00;;;;;;5101669;28;20056;-88
2023/10/19 02:06:21;;;;;;;57.23;39.23;;;7.00;86.00;;;;;;5071865;28;20040;-90
2023/10/19 02:09:09;;;;;;;57.37;39.47;;;7.00;86.10;;;;;;5072341;28;20693;-90
2023/10/19 02:11:41;;;;;;;54.93;38.83;;;7.00;86.20;;;;;;5088994;28;20052;-86
2023/10/19 02:14:14;;;;;;;53.00;38.17;;;7.00;86.30;;;;;;5080611;28;20039;-88
2023/10/19 02:16:43;;;;;;;61.20;40.50;;;7.00;86.30;;;;;;5095743;28;20114;-88
2023/10/19 02:19:10;;;;;;;61.07;40.83;;;7.00;86.30;;;;;;5080974;28;20054;-87
2023/10/19 02:21:42;;;;;;;58.50;39.47;;;7.00;86.40;;;;;;5093659;28;20040;-87
2023/10/19 02:24:10;;;;;;;59.17;39.83;;;7.00;86.40;;;;;;5088395;28;20579;-88
2023/10/19 02:26:38;;;;;;;58.83;39.53;;;7.00;86.40;;;;;;5076653;28;20058;-87
2023/10/19 02:29:07;;;;;;;61.07;40.60;;;7.00;86.50;;;;;;5096024;28;20036;-87
2023/10/19 02:31:37;;;;;;;58.57;40.93;;;7.00;86.50;;;;;;5087598;28;20040;-88
2023/10/19 02:34:04;;;;;;;66.00;41.03;;;7.00;86.50;;;;;;5088273;28;20070;-91
2023/10/19 02:36:31;;;;;;;59.97;40.13;;;7.00;86.50;;;;;;5088147;28;20048;-88
2023/10/19 02:39:00;;;;;;;57.70;39.40;;;7.00;86.50;;;;;;5073087;28;20052;-88
2023/10/19 02:41:29;;;;;;;50.07;36.30;;;7.00;86.60;;;;;;5072332;28;20043;-91
2023/10/19 02:44:02;;;;;;;53.40;35.90;;;7.00;86.70;;;;;;5094862;28;20040;-88
2023/10/19 02:46:28;;;;;;;46.80;33.00;;;7.00;86.70;;;;;;5078522;28;20505;-89
2023/10/19 02:48:54;;;;;;;57.20;37.33;;;7.00;86.70;;;;;;5071589;28;20131;-88
2023/10/19 02:51:20;;;;;;;55.20;36.83;;;7.00;86.80;;;;;;5092333;28;20127;-89
2023/10/19 02:53:46;;;;;;;55.30;35.77;;;7.00;86.80;;;;;;5092447;28;20121;-89
2023/10/19 02:56:16;;;;;;;54.70;37.10;;;7.00;86.80;;;;;;5075504;28;20558;-88
2023/10/19 02:58:43;;;;;;;53.93;34.90;;;7.00;86.80;;;;;;5070863;28;20060;-90
2023/10/19 03:01:24;;;;;;;58.00;37.27;;;7.00;86.90;;;;;;5105218;28;20082;-88
2023/10/19 03:03:53;;;;;;;50.75;34.22;;;7.00;87.00;;;;;;5076133;28;20040;-87
2023/10/19 03:06:23;;;;;;;53.40;34.27;;;7.00;86.90;;;;;;5092458;28;20052;-91
2023/10/19 03:08:57;;;;;;;55.43;35.40;;;7.00;87.00;;;;;;5092962;28;20035;-89
2023/10/19 03:11:27;;;;;;;56.00;35.63;;;7.00;87.00;;;;;;5104251;28;20544;-88
2023/10/19 03:13:53;;;;;;;46.07;31.47;;;7.00;87.00;;;;;;5092695;28;20063;-90
2023/10/19 03:16:20;;;;;;;45.47;31.07;;;7.00;87.10;;;;;;5075954;28;20157;-90
2023/10/19 03:18:47;;;;;;;44.90;30.10;;;7.00;87.10;;;;;;5064728;28;20056;-88
2023/10/19 03:21:12;;;;;;;48.17;31.83;;;7.00;87.10;;;;;;5085281;28;20421;-92
2023/10/19 03:23:40;;;;;;;49.30;31.77;;;7.00;87.20;;;;;;5076358;28;20048;-89
2023/10/19 03:28:57;;;;;;;45.83;31.17;;;7.00;87.20;;;;;;5092701;28;20418;-89
2023/10/19 03:31:26;;;;;;;49.40;32.67;;;7.00;87.30;;;;;;5092866;28;20387;-87
2023/10/19 03:33:55;;;;;;;52.73;33.13;;;7.00;87.30;;;;;;5092010;28;20407;-91
2023/10/19 03:36:25;;;;;;;48.07;32.13;;;7.00;87.30;;;;;;5092425;28;20552;-91
2023/10/19 03:38:52;;;;;;;45.30;30.83;;;7.00;87.30;;;;;;5106203;28;20100;-94
2023/10/19 03:41:24;;;;;;;43.43;30.67;;;7.00;87.30;;;;;;5087345;28;20549;-88
2023/10/19 03:43:52;;;;;;;50.83;32.83;;;7.00;87.40;;;;;;5075147;28;20087;-89
2023/10/19 03:46:28;;;;;;;48.00;32.13;;;7.00;87.40;;;;;;5079383;28;20113;-88
2023/10/19 03:48:58;;;;;;;47.23;31.67;;;7.00;87.50;;;;;;5096110;28;20051;-87
2023/10/19 03:51:26;;;;;;;50.17;31.97;;;7.00;87.50;;;;;;5091798;28;20047;-87
2023/10/19 03:54:01;;;;;;;42.40;30.37;;;7.00;87.50;;;;;;5092113;28;20067;-88
2023/10/19 03:56:26;;;;;;;41.90;30.73;;;7.00;87.50;;;;;;5092604;28;20052;-88
2023/10/19 03:58:52;;;;;;;49.40;32.50;;;7.00;87.50;;;;;;5094194;28;20051;-87
2023/10/19 04:01:19;;;;;;;45.33;30.50;;;7.00;87.50;;;;;;5104482;28;20086;-87
2023/10/19 04:03:45;;;;;;;51.03;31.97;;;7.00;87.60;;;;;;5105051;28;20043;-89
2023/10/19 04:06:14;;;;;;;55.07;33.17;;;7.00;87.70;;;;;;5091832;28;20055;-87
2023/10/19 04:08:42;;;;;;;51.30;30.73;;;7.00;87.70;;;;;;5091098;28;20052;-92
2023/10/19 04:11:12;;;;;;;42.43;30.37;;;7.00;87.70;;;;;;5092802;28;20135;-88
2023/10/19 04:13:38;;;;;;;46.20;31.27;;;7.10;87.70;;;;;;5092159;28;20382;-91
2023/10/19 04:16:10;;;;;;;45.77;31.50;;;7.10;87.70;;;;;;5075160;28;20142;-90
2023/10/19 04:18:43;;;;;;;;;;;7.10;87.70;;;;;;5097409;28;20441;-90
2023/10/19 04:21:08;;;;;;;48.03;31.00;;;7.10;87.80;;;;;;5082186;28;19920;-90
2023/10/19 04:23:37;;;;;;;50.90;32.03;;;7.10;87.90;;;;;;5091430;28;20044;-91
2023/10/19 04:26:10;;;;;;;43.13;29.52;;;7.10;87.80;;;;;;5091850;28;20054;-88
2023/10/19 04:28:49;;;;;;;41.73;28.60;;;7.20;87.90;;;;;;5090451;28;20491;-88
2023/10/19 04:31:19;;;;;;;42.63;28.30;;;7.20;87.80;;;;;;5082873;28;20071;-88
2023/10/19 04:33:45;;;;;;;46.47;30.70;;;7.20;87.90;;;;;;5090389;28;20117;-87
2023/10/19 04:36:15;;;;;;;48.83;29.97;;;7.20;87.80;;;;;;5074307;28;20055;-88
2023/10/19 04:38:41;;;;;;;45.63;29.93;;;7.20;87.90;;;;;;5085580;28;20792;-88
2023/10/19 04:41:08;;;;;;;45.10;30.27;;;7.20;87.90;;;;;;5099216;28;20036;-89
2023/10/19 04:43:36;;;;;;;41.63;27.60;;;7.20;87.90;;;;;;5068426;28;20056;-90
2023/10/19 04:46:11;;;;;;;43.13;28.63;;;7.20;87.90;;;;;;5090764;28;20056;-93
2023/10/19 04:48:39;;;;;;;40.67;28.63;;;7.20;88.00;;;;;;5090625;28;20040;-89
2023/10/19 04:51:09;;;;;;;51.50;30.93;;;7.20;88.00;;;;;;5114235;27;20050;-91
2023/10/19 04:53:35;;;;;;;56.20;31.90;;;7.20;88.00;;;;;;5068449;28;20090;-90
2023/10/19 04:56:03;;;;;;;46.27;28.10;;;7.20;88.00;;;;;;5060329;28;20044;-91
2023/10/19 04:58:29;;;;;;;52.17;30.60;;;7.20;87.90;;;;;;5083670;28;20048;-91
2023/10/19 05:00:55;;;;;;;41.43;26.57;;;7.30;88.00;;;;;;5073560;28;20062;-92
2023/10/19 05:03:21;;;;;;;40.47;27.07;;;7.30;88.00;;;;;;5066214;28;20135;-90
2023/10/19 05:05:47;;;;;;;39.57;25.80;;;7.30;87.90;;;;;;5072666;28;20043;-89
2023/10/19 05:08:13;;;;;;;36.37;25.07;;;7.30;87.90;;;;;;5103322;28;20052;-88
2023/10/19 05:10:40;;;;;;;42.63;26.70;;;7.30;88.00;;;;;;5091067;28;20505;-88
2023/10/19 05:13:06;;;;;;;39.67;26.37;;;7.30;87.90;;;;;;5068290;28;20063;-93
2023/10/19 05:15:33;;;;;;;32.70;23.00;;;7.30;88.00;;;;;;5087012;28;20040;-87
2023/10/19 05:17:59;;;;;;;41.10;26.00;;;7.30;88.00;;;;;;5073029;28;20055;-92
2023/10/19 05:20:25;;;;;;;35.97;24.13;;;7.40;87.90;;;;;;5100049;28;20132;-88
2023/10/19 05:22:51;;;;;;;40.87;25.23;;;7.40;87.90;;;;;;5089191;28;20055;-90
2023/10/19 05:25:17;;;;;;;33.97;23.27;;;7.30;87.90;;;;;;5096766;28;20704;-91
2023/10/19 05:27:45;;;;;;;32.73;22.83;;;7.40;87.90;;;;;;5098396;28;20087;-88
2023/10/19 05:30:11;;;;;;;30.90;20.77;;;7.40;88.00;;;;;;5078605;28;20399;-89
2023/10/19 05:32:38;;;;;;;31.10;20.77;;;7.30;88.00;;;;;;5090212;28;20403;-89
2023/10/19 05:35:04;;;;;;;34.20;22.87;;;7.40;88.00;;;;;;5089520;28;20063;-89
2023/10/19 05:37:31;;;;;;;35.07;22.27;;;7.40;88.00;;;;;;5073191;28;20100;-89
2023/10/19 05:39:57;;;;;;;30.83;21.43;;;7.40;88.00;;;;;;5089932;28;20047;-90
2023/10/19 05:42:23;;;;;;;31.23;21.53;;;7.40;88.00;;;;;;5089509;28;20044;-90
2023/10/19 05:44:49;;;;;;;30.90;20.90;;;7.40;88.00;;;;;;5090139;28;20079;-90
2023/10/19 05:47:14;;;;;;;32.03;21.40;;;7.40;88.00;;;;;;5086399;28;20483;-88
2023/10/19 05:49:40;;;;;;;30.83;21.13;;;7.40;88.00;;;;;;5098951;28;20054;-90
2023/10/19 05:52:06;;;;;;;33.87;22.27;;;7.40;88.00;;;;;;5079842;28;20058;-89
2023/10/19 05:54:32;;;;;;;28.53;20.33;;;7.40;88.00;;;;;;5100285;28;20075;-88
2023/10/19 05:56:58;;;;;;;29.13;19.30;;;7.40;88.00;;;;;;5089236;28;20060;-90
2023/10/19 05:59:26;;;;;;;31.37;20.97;;;7.40;88.00;;;;;;5089788;28;20079;-90
2023/10/19 06:01:52;;;;;;;33.87;21.50;;;7.40;88.00;;;;;;5089816;28;20052;-92
2023/10/19 06:04:18;;;;;;;28.63;19.77;;;7.40;88.00;;;;;;5089430;28;20047;-94
2023/10/19 06:06:44;;;;;;;23.27;17.33;;;7.40;88.00;;;;;;5072619;28;20121;-90
2023/10/19 06:09:09;;;;;;;28.17;18.97;;;7.40;88.00;;;;;;5089586;28;20701;-90
2023/10/19 06:11:37;;;;;;;22.97;16.83;;;7.50;87.90;;;;;;5087307;28;20050;-89
2023/10/19 06:14:06;;;;;;;21.73;16.50;;;7.50;87.90;;;;;;5097178;28;20104;-92
2023/10/19 06:16:33;;;;;;;22.13;14.77;;;7.40;87.90;;;;;;5094655;28;20059;-90
2023/10/19 06:18:59;;;;;;;18.77;15.17;;;7.40;87.90;;;;;;5072351;28;20048;-90
2023/10/19 06:21:25;;;;;;;21.43;15.80;;;7.40;87.90;;;;;;5102669;28;20047;-88
2023/10/19 06:23:53;;;;;;;23.93;16.13;;;7.40;87.90;;;;;;5088030;28;20055;-90
2023/10/19 06:26:19;;;;;;;22.03;15.00;;;7.40;87.80;;;;;;5071474;28;20048;-89
2023/10/19 06:28:44;;;;;;;20.23;13.30;;;7.50;87.90;;;;;;5094849;28;20062;-90
2023/10/19 06:31:10;;;;;;;26.00;16.57;;;7.40;87.90;;;;;;5088697;28;20123;-89
2023/10/19 06:33:36;;;;;;;19.70;13.23;;;7.50;87.90;;;;;;5088623;28;20052;-90
2023/10/19 06:36:03;;;;;;;19.20;13.90;;;7.50;87.90;;;;;;5084954;28;20101;-89
2023/10/19 06:38:31;;;;;;;20.63;13.97;;;7.50;87.90;;;;;;5079355;28;20048;-93
2023/10/19 06:40:57;;;;;;;16.97;12.97;;;7.50;87.80;;;;;;5089464;28;20040;-91
2023/10/19 06:43:27;;;;;;;17.40;13.03;;;7.50;87.80;;;;;;5078175;28;20049;-93
2023/10/19 06:45:54;;;;;;;13.30;10.23;;;7.50;87.80;;;;;;5077175;28;20040;-91
2023/10/19 06:48:21;;;;;;;20.83;12.93;;;7.50;87.80;;;;;;5093582;28;20803;-90
2023/10/19 06:50:46;;;;;;;15.10;12.57;;;7.50;87.80;;;;;;5093678;28;20047;-89
2023/10/19 06:53:12;;;;;;;19.37;12.47;;;7.50;87.90;;;;;;5095152;28;20044;-92
2023/10/19 06:55:38;;;;;;;15.83;10.93;;;7.50;87.90;;;;;;5078238;28;20047;-92
2023/10/19 06:58:04;;;;;;;18.43;13.00;;;7.50;87.80;;;;;;5098505;28;20119;-91
2023/10/19 07:00:30;;;;;;;17.23;12.50;;;7.50;87.80;;;;;;5090110;28;20040;-92
2023/10/19 07:03:00;;;;;;;17.77;12.73;;;7.50;87.80;;;;;;5088785;28;20038;-90
2023/10/19 07:05:29;;;;;;;16.00;11.37;;;7.50;87.70;;;;;;5084936;28;20118;-90
2023/10/19 07:07:56;;;;;;;14.43;11.07;;;7.50;87.80;;;;;;5085458;28;20083;-90
2023/10/19 07:10:23;;;;;;;14.23;10.90;;;7.50;87.80;;;;;;5071085;28;20438;-89
2023/10/19 07:12:51;;;;;;;19.37;12.73;;;7.50;87.80;;;;;;5087191;28;20044;-89
2023/10/19 07:15:22;;;;;;;14.87;11.47;;;7.50;87.80;;;;;;5074138;28;20047;-93
2023/10/19 07:17:50;;;;;;;15.30;11.50;;;7.50;87.90;;;;;;5067739;28;20040;-91
2023/10/19 07:20:26;;;;;;;15.30;11.80;;;7.50;87.90;;;;;;5074840;28;20036;-91
2023/10/19 07:22:53;;;;;;;15.53;10.57;;;7.50;87.90;;;;;;5073860;28;20105;-90
2023/10/19 07:25:21;;;;;;;13.00;10.33;;;7.50;87.90;;;;;;5064065;28;20588;-88
2023/10/19 07:27:48;;;;;;;13.33;10.67;;;7.50;87.90;;;;;;5067980;28;20052;-90
2023/10/19 07:30:15;;;;;;;14.53;10.83;;;7.50;87.90;;;;;;5072503;28;20576;-89
2023/10/19 07:32:41;;;;;;;14.47;11.03;;;7.50;87.90;;;;;;5071599;28;20060;-91
2023/10/19 07:35:07;;;;;;;14.40;11.00;;;7.50;87.90;;;;;;5068108;28;20133;-89
2023/10/19 07:37:33;;;;;;;16.10;11.47;;;7.50;87.90;;;;;;5075035;28;20437;-90
2023/10/19 07:39:59;;;;;;;14.27;10.70;;;7.50;87.90;;;;;;5110202;27;20457;-90
2023/10/19 07:42:25;;;;;;;10.93;8.93;;;7.50;87.90;;;;;;5058984;28;20062;-89
2023/10/19 07:44:51;;;;;;;12.63;9.87;;;7.50;87.90;;;;;;5077463;28;20085;-92
2023/10/19 07:47:17;;;;;;;11.10;9.50;;;7.50;87.90;;;;;;5076367;28;20663;-92
2023/10/19 07:49:43;;;;;;;10.23;8.60;;;7.50;87.90;;;;;;5075227;28;20096;-89
2023/10/19 07:52:10;;;;;;;11.53;8.63;;;7.60;87.90;;;;;;5074177;28;21551;-89
2023/10/19 07:54:37;;;;;;;13.13;9.80;;;7.60;87.80;;;;;;5075530;28;20560;-92
2023/10/19 07:57:06;;;;;;;16.00;11.17;;;7.60;87.80;;;;;;5077642;28;20054;-94
2023/10/19 07:59:33;;;;;;;10.97;9.23;;;7.60;87.80;;;;;;5079078;28;20410;-93
2023/10/19 08:02:02;;;;;;;13.73;9.03;;;7.60;87.80;;;;;;5078252;28;20435;-92
2023/10/19 08:04:28;;;;;;;10.37;9.13;;;7.60;87.80;;;;;;5078945;28;20187;-91
2023/10/19 08:06:55;;;;;;;11.67;8.93;;;7.60;87.80;;;;;;5079372;28;20044;-90
2023/10/19 08:09:26;;;;;;;10.90;8.60;;;7.60;87.80;;;;;;5077209;28;20056;-90
2023/10/19 08:11:55;;;;;;;14.00;9.93;;;7.60;87.70;;;;;;5078503;28;20499;-91
2023/10/19 08:14:27;;;;;;;12.17;9.40;;;7.60;87.70;;;;;;5079179;28;20104;-90
2023/10/19 08:16:56;;;;;;;11.87;9.23;;;7.60;87.70;;;;;;5079368;28;20051;-90
2023/10/19 08:19:22;;;;;;;12.17;8.93;;;7.60;87.70;;;;;;5080854;28;20602;-89
2023/10/19 08:21:48;;;;;;;10.53;8.77;;;7.60;87.70;;;;;;5077510;28;20062;-92
2023/10/19 08:24:17;;;;;;;9.73;8.70;;;7.60;87.70;;;;;;5078012;28;20060;-87
2023/10/19 08:26:46;;;;;;;10.37;8.90;;;7.60;87.60;;;;;;5078472;28;20158;-93
2023/10/19 08:29:13;;;;;;;11.53;9.80;;;7.60;87.70;;;;;;5079125;28;20050;-90
2023/10/19 08:31:42;;;;;;;12.30;10.23;;;7.60;87.60;;;;;;5077865;28;20077;-91
2023/10/19 08:34:11;;;;;;;10.73;9.37;;;7.60;87.70;;;;;;5077746;28;20576;-87
2023/10/19 08:36:40;;;;;;;11.20;9.63;;;7.60;87.60;;;;;;5076736;28;20071;-88
2023/10/19 08:39:07;;;;;;;12.47;10.43;;;7.60;87.70;;;;;;5078063;28;20040;-92
2023/10/19 08:41:37;;;;;;;13.20;10.40;;;7.60;87.70;;;;;;5078500;28;20055;-91
2023/10/19 08:44:10;;;;;;;12.73;10.57;;;7.60;87.60;;;;;;5060697;28;20084;-91
2023/10/19 08:46:47;;;;;;;11.33;10.13;;;7.60;87.70;;;;;;5075866;28;20525;-91
2023/10/19 08:49:13;;;;;;;13.87;11.93;;;7.60;87.60;;;;;;5078122;28;20052;-92
2023/10/19 08:51:44;;;;;;;13.80;11.13;;;7.60;87.70;;;;;;5077121;28;20050;-93
2023/10/19 08:54:11;;;;;;;12.80;10.57;;;7.60;87.70;;;;;;5059361;28;20087;-92
2023/10/19 08:56:38;;;;;;;14.70;11.77;;;7.60;87.60;;;;;;5076896;28;20040;-89
2023/10/19 08:59:06;;;;;;;16.43;12.67;;;7.60;87.70;;;;;;5076636;28;20048;-90
2023/10/19 09:01:32;;;;;;;15.67;13.00;;;7.70;87.70;;;;;;5075296;28;20101;-92
2023/10/19 09:03:58;;;;;;;15.97;12.87;;;7.60;87.70;;;;;;5060311;28;20441;-89
2023/10/19 09:06:24;;;;;;;15.87;12.53;;;7.70;87.60;;;;;;5076565;28;20052;-92
2023/10/19 09:08:50;;;;;;;16.93;13.40;;;7.70;87.60;;;;;;5076817;28;20155;-94
2023/10/19 09:11:20;;;;;;;17.47;13.83;;;7.80;87.70;;;;;;5073402;28;20060;-92
2023/10/19 09:13:48;;;;;;;19.70;15.10;;;7.80;87.80;;;;;;5074485;28;20082;-89
2023/10/19 09:16:18;;;;;;;19.47;15.37;;;7.80;87.80;;;;;;5073239;28;20052;-89
2023/10/19 09:18:47;;;;;;;20.00;14.77;;;7.80;87.80;;;;;;5074398;28;20864;-89
2023/10/19 09:21:25;;;;;;;19.73;15.57;;;7.80;87.80;;;;;;5071690;28;20085;-89
2023/10/19 09:23:57;;;;;;;21.53;16.13;;;7.80;87.80;;;;;;5075462;28;20097;-90
2023/10/19 09:26:24;;;;;;;24.27;15.97;;;7.80;87.70;;;;;;5072475;28;20433;-89
2023/10/19 09:28:52;;;;;;;23.63;17.70;;;7.80;87.80;;;;;;5055000;28;20055;-90
2023/10/19 09:31:20;;;;;;;25.53;17.40;;;7.80;87.80;;;;;;5054470;28;20124;-90
2023/10/19 09:33:48;;;;;;;24.37;17.20;;;7.80;87.80;;;;;;5072329;28;20060;-92
2023/10/19 09:36:15;;;;;;;25.73;17.67;;;7.80;87.80;;;;;;5071708;28;20483;-90
2023/10/19 09:38:47;;;;;;;29.27;18.63;;;7.90;87.90;;;;;;5054700;28;20055;-88
2023/10/19 09:41:14;;;;;;;27.07;18.40;;;7.90;87.80;;;;;;5071075;28;20489;-88
2023/10/19 09:43:45;;;;;;;24.63;18.27;;;8.00;88.00;;;;;;5069303;28;20533;-90
2023/10/19 09:46:15;;;;;;;25.73;17.48;;;8.00;87.90;;;;;;5070377;28;20051;-87
2023/10/19 09:48:42;;;;;;;27.23;17.93;;;8.00;87.90;;;;;;5055312;28;20044;-91
2023/10/19 09:51:09;;;;;;;25.57;18.13;;;8.00;87.90;;;;;;5072460;28;20051;-89
2023/10/19 09:53:37;;;;;;;31.93;19.97;;;8.00;87.90;;;;;;5052705;28;20052;-90
2023/10/19 09:56:06;;;;;;;27.27;17.40;;;8.00;87.90;;;;;;5070249;28;20486;-91
2023/10/19 09:58:40;;;;;;;31.50;19.57;;;8.00;88.00;;;;;;5054066;28;20410;-91
2023/10/19 10:01:12;;;;;;;26.20;18.33;;;8.00;88.00;;;;;;5069332;28;21689;-88
2023/10/19 10:03:44;;;;;;;30.73;19.47;;;8.00;88.00;;;;;;5070368;28;20040;-87
2023/10/19 10:06:14;;;;;;;29.67;19.23;;;8.00;87.90;;;;;;5085927;28;20051;-91
2023/10/19 10:08:45;;;;;;;29.77;18.80;;;8.10;88.00;;;;;;5072152;28;21558;-91
2023/10/19 10:11:19;;;;;;;34.20;19.50;;;8.10;88.00;;;;;;5056743;28;20155;-91
2023/10/19 10:13:50;;;;;;;31.37;18.40;;;8.10;87.90;;;;;;5073240;28;20056;-90
2023/10/19 10:16:17;;;;;;;26.60;17.80;;;8.10;87.90;;;;;;5069828;28;20925;-93
2023/10/19 10:18:45;;;;;;;28.03;18.23;;;8.10;87.90;;;;;;5068809;28;20082;-90
2023/10/19 10:21:11;;;;;;;29.40;18.40;;;8.10;87.90;;;;;;5068951;28;20044;-90
2023/10/19 10:23:47;;;;;;;30.43;18.67;;;8.10;87.90;;;;;;5069367;28;20044;-91
2023/10/19 10:26:14;;;;;;;29.73;19.97;;;8.10;87.80;;;;;;5056479;28;20058;-89
2023/10/19 10:28:41;;;;;;;31.27;18.97;;;8.10;87.90;;;;;;5062092;28;20048;-92
2023/10/19 10:31:25;;;;;;;27.30;18.03;;;8.10;87.90;;;;;;5058323;28;20131;-90
2023/10/19 10:33:54;;;;;;;31.03;19.20;;;8.20;87.80;;;;;;5074328;28;20113;-90
2023/10/19 10:36:21;;;;;;;34.67;21.10;;;8.20;87.90;;;;;;5074318;28;20109;-89
2023/10/19 10:38:50;;;;;;;33.17;21.13;;;8.20;88.00;;;;;;5073242;28;20051;-92
2023/10/19 10:41:24;;;;;;;31.43;20.63;;;8.20;88.00;;;;;;5071192;28;20060;-90
2023/10/19 10:43:54;;;;;;;36.97;21.10;;;8.30;88.00;;;;;;5072470;28;20040;-91
2023/10/19 10:46:25;;;;;;;31.57;19.80;;;8.30;88.00;;;;;;5055602;28;20051;-91
2023/10/19 10:48:51;;;;;;;32.07;19.13;;;8.30;87.90;;;;;;5070145;28;20083;-91
2023/10/19 10:51:28;;;;;;;28.60;18.87;;;8.40;88.00;;;;;;5073394;28;20090;-91
2023/10/19 10:53:54;;;;;;;28.87;17.90;;;8.40;88.00;;;;;;5070859;28;21625;-90
2023/10/19 10:56:23;;;;;;;33.83;19.00;;;8.40;88.00;;;;;;5067773;28;20060;-92
2023/10/19 10:58:49;;;;;;;32.47;19.73;;;8.40;88.00;;;;;;5067665;28;20680;-89
2023/10/19 11:01:27;;;;;;;29.73;19.13;;;8.40;87.90;;;;;;5067035;28;20438;-89
2023/10/19 11:04:09;;;;;;;31.83;18.90;;;8.40;87.90;;;;;;5066882;28;20043;-89
2023/10/19 11:06:49;;;;;;;31.60;18.75;;;8.40;87.90;;;;;;5067645;28;20048;-91
2023/10/19 11:09:24;;;;;;;27.17;18.10;;;8.40;87.80;;;;;;5060686;28;20064;-91
2023/10/19 11:11:52;;;;;;;27.60;18.17;;;8.40;87.70;;;;;;5054630;28;20056;-91
2023/10/19 11:14:18;;;;;;;28.40;19.67;;;8.40;87.80;;;;;;5073130;28;21420;-89
2023/10/19 11:16:43;;;;;;;31.77;21.13;;;8.40;87.70;;;;;;5074315;28;20059;-89
2023/10/19 11:19:09;;;;;;;25.70;17.57;;;8.40;87.60;;;;;;5074955;28;20685;-89
2023/10/19 11:21:36;;;;;;;29.27;20.53;;;8.40;87.50;;;;;;5074366;28;20393;-89
2023/10/19 11:24:01;;;;;;;37.47;23.53;;;8.30;87.50;;;;;;5072699;28;20109;-91
2023/10/19 11:26:27;;;;;;;29.30;20.53;;;8.40;87.50;;;;;;5075067;28;20154;-89
2023/10/19 11:28:58;;;;;;;34.00;20.77;;;8.40;87.60;;;;;;5059061;28;20530;-88
2023/10/19 11:31:24;;;;;;;33.63;21.53;;;8.40;87.60;;;;;;5065791;28;20574;-93
2023/10/19 11:33:55;;;;;;;27.77;20.40;;;8.30;87.50;;;;;;5074266;28;20098;-91
2023/10/19 11:36:22;;;;;;;25.38;17.98;;;8.30;87.50;;;;;;5057716;28;20059;-90
2023/10/19 11:38:51;;;;;;;32.43;20.70;;;8.30;87.50;;;;;;5070231;28;20368;-89
2023/10/19 11:41:17;;;;;;;32.63;19.97;;;8.30;87.50;;;;;;5070122;28;20123;-88
2023/10/19 11:43:45;;;;;;;26.83;18.53;;;8.30;87.40;;;;;;5059068;28;20101;-92
2023/10/19 11:46:12;;;;;;;30.23;19.43;;;8.20;87.40;;;;;;5068782;28;20060;-89
2023/10/19 11:48:39;;;;;;;28.40;19.57;;;8.30;87.50;;;;;;5051450;28;20383;-89
2023/10/19 11:51:06;;;;;;;29.23;20.83;;;8.20;87.50;;;;;;5065315;28;20107;-90
2023/10/19 11:53:36;;;;;;;26.57;19.30;;;8.30;87.50;;;;;;5068514;28;20052;-91
2023/10/19 11:56:04;;;;;;;26.03;19.03;;;8.30;87.60;;;;;;5070105;28;20052;-89
2023/10/19 11:58:37;;;;;;;27.40;19.87;;;8.30;87.60;;;;;;5055278;28;20075;-89
2023/10/19 12:01:08;;;;;;;33.00;21.90;;;8.30;87.60;;;;;;4155541;28;10000781;-93
2023/10/19 12:07:05;;;;;;;31.00;23.83;;;8.30;87.70;;;;;;5001245;22;20057;-65
2023/10/19 12:09:41;;;;;;;31.65;24.45;;;8.30;87.70;;;;;;4345549;28;10001374;-64
2023/10/19 12:12:08;;;;;;;41.50;28.03;;;8.20;87.60;;;;;;4987101;28;20965;-65
2023/10/19 12:14:35;;;;;;;41.13;29.27;;;8.20;87.60;;;;;;4998784;28;20053;-65
2023/10/19 12:17:02;;;;;;;54.27;35.90;;;8.20;87.60;;;;;;5009678;28;20187;-65
2023/10/19 12:19:31;;;;;;;56.20;37.23;;;8.20;87.70;;;;;;5008405;28;20061;-65
2023/10/19 12:21:57;;;;;;;58.73;40.23;;;8.20;87.70;;;;;;5006521;28;20053;-64
2023/10/19 12:24:23;;;;;;;65.07;43.00;;;8.20;87.70;;;;;;5008241;28;20107;-65
2023/10/19 12:26:50;;;;;;;61.73;42.07;;;8.20;87.70;;;;;;5010775;28;20530;-65
2023/10/19 12:29:20;;;;;;;65.93;42.77;;;8.20;87.70;;;;;;5013205;28;20404;-64
2023/10/19 12:31:49;;;;;;;72.53;44.83;;;8.20;87.60;;;;;;5009077;28;20056;-64
2023/10/19 12:34:16;;;;;;;67.90;42.53;;;8.20;87.70;;;;;;5008306;28;20713;-65
2023/10/19 12:36:44;;;;;;;49.00;34.37;;;8.20;87.70;;;;;;5009456;28;20053;-64
2023/10/19 12:39:35;;;;;;;50.50;34.87;;;8.20;87.80;;;;;;5010485;28;20079;-65
2023/10/19 12:41:56;;;;;;;53.07;34.10;;;8.20;87.70;;;;;;5009304;28;20054;-64
2023/10/19 12:44:22;;;;;;;53.63;35.50;;;8.20;87.60;;;;;;5007583;28;20087;-65
2023/10/19 12:46:48;;;;;;;48.57;33.13;;;8.10;87.60;;;;;;5008511;28;20176;-64
2023/10/19 12:49:16;;;;;;;53.93;34.00;;;8.10;87.60;;;;;;5008779;28;20045;-64
2023/10/19 12:51:42;;;;;;;39.40;27.83;;;8.10;87.70;;;;;;5008195;28;20060;-64
2023/10/19 12:54:10;;;;;;;42.73;28.87;;;8.10;87.70;;;;;;5007523;28;20089;-64
2023/10/19 12:56:36;;;;;;;42.83;29.13;;;8.10;87.70;;;;;;5007993;28;20140;-64
2023/10/19 12:59:01;;;;;;;47.27;31.30;;;8.10;87.70;;;;;;5007013;28;20088;-64
2023/10/19 13:01:28;;;;;;;42.87;29.10;;;8.10;87.70;;;;;;5006292;28;20049;-64